createdAt,value
2023-04-21T00:02:09.361Z,100062.53
2023-04-21T00:04:36.001Z,100066.19
2023-04-21T00:07:02.582Z,100054.63
2023-04-21T00:09:30.291Z,100052.94
2023-04-21T00:11:56.795Z,100049.41
2023-04-21T00:14:23.313Z,100048.56
2023-04-21T00:16:49.783Z,100047.72
2023-04-21T00:19:16.389Z,100046.75
2023-04-21T00:21:42.944Z,100039.94
2023-04-21T00:24:09.538Z,100042.63
2023-04-21T00:26:37.502Z,100039.09
2023-04-21T00:29:03.993Z,100040.91
2023-04-21T00:31:30.532Z,100034.59
2023-04-21T00:33:57.019Z,100040.06
2023-04-21T00:36:23.484Z,100039.09
2023-04-21T00:38:49.963Z,100035.69
2023-04-21T00:41:16.503Z,100034.13
2023-04-21T00:44:02.896Z,100020.75
2023-04-21T00:46:29.554Z,100020.75
2023-04-21T00:48:56.136Z,100017.22
2023-04-21T00:51:22.822Z,100019.91
2023-04-21T00:53:50.328Z,100018.22
2023-04-21T00:56:17.592Z,100020.03
2023-04-21T00:58:45.807Z,100021.97
2023-04-21T01:01:14.399Z,100019.31
2023-04-21T01:03:41.306Z,100012.28
2023-04-21T01:06:08.685Z,100009.59
2023-04-21T01:08:35.860Z,100003.53
2023-04-21T01:11:09.551Z,100003.53
2023-04-21T01:13:36.045Z,99996.50
2023-04-21T01:16:02.668Z,99992.00
2023-04-21T01:18:30.532Z,100000.00
2023-04-21T01:20:57.032Z,99999.16
2023-04-21T01:23:24.984Z,99997.47
2023-04-21T01:25:52.551Z,100004.66
2023-04-21T01:28:22.132Z,99987.88
2023-04-21T01:30:48.629Z,99986.06
2023-04-21T01:33:15.260Z,99985.34
2023-04-21T01:35:41.891Z,99984.38
2023-04-21T01:38:08.403Z,99977.34
2023-04-21T01:40:36.401Z,99981.81
2023-04-21T01:43:03.280Z,99981.94
2023-04-21T01:45:29.817Z,99980.97
2023-04-21T01:47:56.331Z,99972.09
2023-04-21T01:50:23.027Z,99980.25
2023-04-21T01:52:49.547Z,99974.16
2023-04-21T01:55:16.172Z,99982.91
2023-04-21T01:57:43.964Z,99972.34
2023-04-21T02:00:11.531Z,99969.81
2023-04-21T02:02:38.223Z,99971.63
2023-04-21T02:05:05.469Z,99968.97
2023-04-21T02:07:31.937Z,99967.25
2023-04-21T02:09:58.456Z,99962.88
2023-04-21T02:12:24.879Z,99971.75
2023-04-21T02:14:52.675Z,99962.03
2023-04-21T02:17:19.149Z,99953.03
2023-04-21T02:19:45.590Z,99951.47
2023-04-21T02:22:12.090Z,99955.00
2023-04-21T02:24:38.677Z,99944.34
2023-04-21T02:27:05.329Z,99952.44
2023-04-21T02:29:31.842Z,99939.22
2023-04-21T02:32:07.793Z,99943.72
2023-04-21T02:34:44.683Z,99946.25
2023-04-21T02:37:11.153Z,99943.84
2023-04-21T02:39:37.591Z,99942.84
2023-04-21T02:42:04.282Z,99930.63
2023-04-21T02:44:30.730Z,99935.13
2023-04-21T02:46:58.574Z,99937.78
2023-04-21T02:49:25.071Z,99925.38
2023-04-21T02:51:51.498Z,99936.06
2023-04-21T02:54:17.936Z,99930.88
2023-04-21T02:56:44.427Z,99932.69
2023-04-21T02:59:10.922Z,99934.63
2023-04-21T03:01:37.423Z,99929.28
2023-04-21T03:04:05.435Z,99924.94
2023-04-21T03:06:33.066Z,99930.38
2023-04-21T03:08:59.597Z,99933.94
2023-04-21T03:11:26.065Z,99932.94
2023-04-21T03:13:52.508Z,99929.53
2023-04-21T03:16:19.034Z,99922.50
2023-04-21T03:18:45.588Z,99924.19
2023-04-21T03:21:13.445Z,99925.31
2023-04-21T03:23:39.960Z,99924.44
2023-04-21T03:26:06.989Z,99923.59
2023-04-21T03:28:33.482Z,99925.31
2023-04-21T03:30:59.989Z,99928.09
2023-04-21T03:33:26.455Z,99921.06
2023-04-21T03:35:52.975Z,99914.88
2023-04-21T03:38:20.758Z,99918.41
2023-04-21T03:40:47.194Z,99906.97
2023-04-21T03:43:13.654Z,99896.31
2023-04-21T03:45:40.194Z,99896.31
2023-04-21T03:48:06.714Z,99892.94
2023-04-21T03:50:33.214Z,99891.09
2023-04-21T03:52:59.667Z,99888.44
2023-04-21T03:55:27.454Z,99890.38
2023-04-21T03:57:53.963Z,99901.03
2023-04-21T04:00:20.420Z,99888.69
2023-04-21T04:02:47.139Z,99884.19
2023-04-21T04:05:13.888Z,99883.34
2023-04-21T04:07:40.546Z,99875.44
2023-04-21T04:10:07.106Z,99878.09
2023-04-21T04:12:34.878Z,99873.75
2023-04-21T04:15:01.318Z,99869.97
2023-04-21T04:17:27.807Z,99870.09
2023-04-21T04:19:54.323Z,99862.22
2023-04-21T04:22:20.830Z,99861.38
2023-04-21T04:24:47.294Z,99857.03
2023-04-21T04:27:13.759Z,99865.97
2023-04-21T04:29:41.536Z,99859.81
2023-04-21T04:32:08.442Z,99859.94
2023-04-21T04:34:34.985Z,99861.63
2023-04-21T04:37:01.974Z,99858.13
2023-04-21T04:39:28.506Z,99853.75
2023-04-21T04:41:54.938Z,99850.34
2023-04-21T04:44:21.539Z,99857.38
2023-04-21T04:46:49.560Z,99854.00
2023-04-21T04:49:16.096Z,99859.34
2023-04-21T04:51:42.553Z,99858.50
2023-04-21T04:54:08.991Z,99863.84
2023-04-21T04:56:35.449Z,99864.94
2023-04-21T04:59:01.940Z,99865.53
2023-04-21T05:01:28.695Z,99857.75
2023-04-21T05:03:56.910Z,99855.94
2023-04-21T05:06:23.937Z,99855.94
2023-04-21T05:08:50.368Z,99858.75
2023-04-21T05:11:16.921Z,99864.09
2023-04-21T05:13:43.408Z,99857.91
2023-04-21T05:16:10.013Z,99863.09
2023-04-21T05:18:36.574Z,99855.09
2023-04-21T05:21:04.453Z,99856.78
2023-04-21T05:23:30.974Z,99861.28
2023-04-21T05:25:57.528Z,99862.97
2023-04-21T05:28:24.018Z,99860.28
2023-04-21T05:30:50.481Z,99855.84
2023-04-21T05:33:18.577Z,99856.78
2023-04-21T05:35:45.099Z,99842.72
2023-04-21T05:38:13.002Z,99849.63
2023-04-21T05:40:39.441Z,99853.03
2023-04-21T05:43:05.976Z,99845.00
2023-04-21T05:45:32.469Z,99847.81
2023-04-21T05:47:58.938Z,99856.53
2023-04-21T05:50:25.374Z,99866.22
2023-04-21T05:52:51.794Z,99862.72
2023-04-21T05:55:19.589Z,99865.38
2023-04-21T05:57:46.041Z,99866.38
2023-04-21T06:00:13.385Z,99858.13
2023-04-21T06:02:39.984Z,99858.13
2023-04-21T06:05:07.170Z,99864.28
2023-04-21T06:07:35.359Z,99863.25
2023-04-21T06:10:01.910Z,99860.94
2023-04-21T06:12:29.690Z,99869.34
2023-04-21T06:14:56.345Z,99864.75
2023-04-21T06:17:23.113Z,99871.53
2023-04-21T06:19:49.572Z,99870.78
2023-04-21T06:22:16.072Z,99867.63
2023-04-21T06:24:42.552Z,99871.13
2023-04-21T06:27:11.166Z,99864.81
2023-04-21T06:29:38.895Z,99863.72
2023-04-21T06:32:05.717Z,99859.94
2023-04-21T06:34:32.220Z,99859.94
2023-04-21T06:36:58.701Z,99866.28
2023-04-21T06:39:25.216Z,99864.19
2023-04-21T06:41:51.754Z,99862.38
2023-04-21T06:44:18.830Z,99862.47
2023-04-21T06:46:46.988Z,99858.25
2023-04-21T06:49:13.431Z,99860.22
2023-04-21T06:51:39.892Z,99857.28
2023-04-21T06:54:06.403Z,99857.13
2023-04-21T06:56:32.879Z,99860.53
2023-04-21T06:58:59.397Z,99857.72
2023-04-21T07:01:25.921Z,99856.78
2023-04-21T07:03:53.998Z,99863.06
2023-04-21T07:06:20.529Z,99857.63
2023-04-21T07:08:47.003Z,99848.50
2023-04-21T07:11:13.529Z,99848.78
2023-04-21T07:13:40.069Z,99852.13
2023-04-21T07:16:06.535Z,99851.19
2023-04-21T07:18:33.110Z,99845.31
2023-04-21T07:21:00.909Z,99841.53
2023-04-21T07:23:27.459Z,99837.03
2023-04-21T07:25:53.932Z,99834.50
2023-04-21T07:28:20.434Z,99826.34
2023-04-21T07:30:46.942Z,99831.94
2023-04-21T07:33:13.832Z,99829.41
2023-04-21T07:35:40.346Z,99828.91
2023-04-21T07:38:08.218Z,99830.59
2023-04-21T07:40:34.676Z,99825.84
2023-04-21T07:43:01.121Z,99821.34
2023-04-21T07:45:27.712Z,99835.47
2023-04-21T07:47:54.229Z,99828.78
2023-04-21T07:50:20.867Z,99824.41
2023-04-21T07:52:47.388Z,99828.03
2023-04-21T07:55:15.389Z,99825.09
2023-04-21T07:59:09.645Z,99820.84
2023-04-21T08:01:36.159Z,99824.63
2023-04-21T08:04:02.894Z,99820.59
2023-04-21T08:06:29.904Z,99823.97
2023-04-21T08:08:56.462Z,99819.34
2023-04-21T08:11:22.918Z,99822.84
2023-04-21T08:13:49.690Z,99819.09
2023-04-21T08:16:17.550Z,99816.78
2023-04-21T08:18:44.067Z,99821.88
2023-04-21T08:21:10.720Z,99808.66
2023-04-21T08:23:37.205Z,99815.34
2023-04-21T08:26:03.811Z,99814.53
2023-04-21T08:28:30.340Z,99815.09
2023-04-21T08:30:56.956Z,99802.72
2023-04-21T08:33:24.799Z,99806.25
2023-04-21T08:36:03.813Z,99807.22
2023-04-21T08:38:30.677Z,99805.41
2023-04-21T08:40:59.074Z,99802.00
2023-04-21T08:43:25.593Z,99799.91
2023-04-21T08:45:53.148Z,99791.88
2023-04-21T08:48:21.349Z,99790.06
2023-04-21T08:50:50.161Z,99796.44
2023-04-21T08:53:17.064Z,99791.69
2023-04-21T08:55:47.759Z,99794.63
2023-04-21T08:58:15.903Z,99794.34
2023-04-21T09:00:42.412Z,99789.44
2023-04-21T09:03:19.418Z,99796.94
2023-04-21T09:06:01.833Z,99792.16
2023-04-21T09:08:29.175Z,99787.22
2023-04-21T09:10:57.230Z,99787.06
2023-04-21T09:13:30.392Z,99791.31
2023-04-21T09:15:57.124Z,99790.22
2023-04-21T09:18:25.228Z,99786.38
2023-04-21T09:21:04.525Z,99782.31
2023-04-21T09:23:39.049Z,99785.38
2023-04-21T09:26:05.601Z,99775.28
2023-04-21T09:28:32.096Z,99778.38
2023-04-21T09:30:58.702Z,99773.91
2023-04-21T09:33:32.349Z,99762.25
2023-04-21T09:36:01.424Z,99765.50
2023-04-21T09:38:27.881Z,99757.47
2023-04-21T09:40:59.306Z,99755.47
2023-04-21T09:43:25.875Z,99755.75
2023-04-21T09:45:54.280Z,99750.81
2023-04-21T09:48:24.321Z,99749.97
2023-04-21T09:51:23.014Z,99752.78
2023-04-21T09:53:39.514Z,99750.09
2023-04-21T09:56:12.114Z,99742.38
2023-04-21T09:58:43.941Z,99744.59
2023-04-21T10:01:12.148Z,99732.22
2023-04-21T10:03:39.547Z,99733.78
2023-04-21T10:06:06.717Z,99734.34
2023-04-21T10:08:34.400Z,99734.78
2023-04-21T10:11:02.007Z,99728.28
2023-04-21T10:13:30.156Z,99735.03
2023-04-21T10:16:02.739Z,99732.81
2023-04-21T10:18:29.478Z,99734.78
2023-04-21T10:20:57.401Z,99731.38
2023-04-21T10:23:33.051Z,99735.19
2023-04-21T10:26:05.225Z,99730.97
2023-04-21T10:28:41.558Z,99721.84
2023-04-21T10:31:20.326Z,99729.75
2023-04-21T10:34:06.608Z,99723.13
2023-04-21T10:36:34.230Z,99721.72
2023-04-21T10:39:02.071Z,99714.66
2023-04-21T10:41:30.384Z,99710.31
2023-04-21T10:44:00.367Z,99711.28
2023-04-21T10:46:35.282Z,99708.34
2023-04-21T10:49:06.668Z,99697.47
2023-04-21T10:51:33.133Z,99701.28
2023-04-21T10:53:59.610Z,99688.75
2023-04-21T10:56:26.120Z,99690.97
2023-04-21T10:58:52.834Z,99686.19
2023-04-21T11:01:20.747Z,99688.03
2023-04-21T11:03:47.525Z,99681.00
2023-04-21T11:06:14.866Z,99680.44
2023-04-21T11:08:55.699Z,99680.16
2023-04-21T11:11:22.763Z,99678.91
2023-04-21T11:13:49.198Z,99674.38
2023-04-21T11:16:15.707Z,99677.59
2023-04-21T11:18:44.928Z,99668.88
2023-04-21T11:21:13.908Z,99666.06
2023-04-21T11:23:40.539Z,99671.56
2023-04-21T11:26:07.052Z,99669.16
2023-04-21T11:28:33.533Z,99658.47
2023-04-21T11:31:00.138Z,99659.72
2023-04-21T11:33:28.799Z,99663.25
2023-04-21T11:35:56.627Z,99658.47
2023-04-21T11:38:24.323Z,99658.47
2023-04-21T11:40:51.094Z,99656.19
2023-04-21T11:43:17.889Z,99637.22
2023-04-21T11:45:48.971Z,99649.03
2023-04-21T11:48:16.210Z,99647.22
2023-04-21T11:50:47.622Z,99649.91
2023-04-21T11:53:16.473Z,99648.63
2023-04-21T11:55:43.935Z,99648.75
2023-04-21T11:58:10.540Z,99645.94
2023-04-21T12:00:37.059Z,99645.22
2023-04-21T12:03:09.104Z,99639.75
2023-04-21T12:05:36.514Z,99639.59
2023-04-21T12:08:03.028Z,99638.63
2023-04-21T12:10:30.804Z,99628.75
2023-04-21T12:12:57.384Z,99634.25
2023-04-21T12:15:23.918Z,99631.00
2023-04-21T12:17:52.029Z,99624.66
2023-04-21T12:20:20.461Z,99635.38
2023-04-21T12:22:47.779Z,99636.63
2023-04-21T12:25:15.113Z,99636.38
2023-04-21T12:27:50.100Z,99629.31
2023-04-21T12:30:16.778Z,99636.38
2023-04-21T12:32:43.361Z,99632.00
2023-04-21T12:35:10.173Z,99636.78
2023-04-21T12:37:36.930Z,99628.63
2023-04-21T12:40:03.755Z,99631.31
2023-04-21T12:42:30.226Z,99628.75
2023-04-21T12:44:58.007Z,99625.25
2023-04-21T12:47:24.581Z,99626.81
2023-04-21T12:49:51.029Z,99628.75
2023-04-21T12:52:17.562Z,99625.81
2023-04-21T12:54:43.979Z,99622.13
2023-04-21T12:57:10.479Z,99631.28
2023-04-21T12:59:37.163Z,99627.50
2023-04-21T13:02:05.075Z,99626.94
2023-04-21T13:04:31.839Z,99626.50
2023-04-21T13:06:58.884Z,99626.50
2023-04-21T13:09:25.380Z,99625.53
2023-04-21T13:11:52.013Z,99620.75
2023-04-21T13:14:18.626Z,99625.81
2023-04-21T13:16:45.184Z,99619.59
2023-04-21T13:19:12.991Z,99623.28
2023-04-21T13:21:39.455Z,99626.63
2023-04-21T13:24:06.195Z,99619.88
2023-04-21T13:26:32.988Z,99624.13
2023-04-21T13:28:59.601Z,99619.03
2023-04-21T13:31:26.228Z,99623.13
2023-04-21T13:33:54.001Z,99621.72
2023-04-21T13:36:22.196Z,99620.72
2023-04-21T13:38:48.779Z,99614.41
2023-04-21T13:41:15.188Z,99616.81
2023-04-21T13:43:41.792Z,99613.56
2023-04-21T13:46:08.268Z,99607.50
2023-04-21T13:48:34.759Z,99609.34
2023-04-21T13:51:01.277Z,99605.66
2023-04-21T13:53:29.088Z,99601.16
2023-04-21T13:55:56.042Z,99598.75
2023-04-21T13:58:22.778Z,99600.88
2023-04-21T14:00:49.213Z,99599.91
2023-04-21T14:03:16.069Z,99594.69
2023-04-21T14:05:42.869Z,99590.16
2023-04-21T14:08:09.494Z,99589.06
2023-04-21T14:10:37.403Z,99583.00
2023-04-21T14:13:04.009Z,99580.59
2023-04-21T14:15:30.589Z,99580.31
2023-04-21T14:17:57.204Z,99577.66
2023-04-21T14:20:23.763Z,99570.78
2023-04-21T14:22:50.313Z,99569.19
2023-04-21T14:25:16.877Z,99568.38
2023-04-21T14:27:44.726Z,99560.72
2023-04-21T14:30:12.503Z,99555.09
2023-04-21T14:32:39.202Z,99549.44
2023-04-21T14:35:06.791Z,99542.13
2023-04-21T14:37:33.316Z,99537.16
2023-04-21T14:39:59.812Z,99537.16
2023-04-21T14:42:26.416Z,99544.22
2023-04-21T14:44:54.146Z,99537.88
2023-04-21T14:47:21.074Z,99532.69
2023-04-21T14:49:47.785Z,99526.63
2023-04-21T14:52:14.318Z,99531.41
2023-04-21T14:54:40.760Z,99523.06
2023-04-21T14:57:19.661Z,99531.66
2023-04-21T14:59:47.836Z,99528.56
2023-04-21T15:02:15.900Z,99529.13
2023-04-21T15:04:42.598Z,99527.97
2023-04-21T15:07:09.183Z,99529.66
2023-04-21T15:09:36.171Z,99519.63
2023-04-21T15:12:03.037Z,99525.69
2023-04-21T15:14:29.776Z,99521.06
2023-04-21T15:16:56.357Z,99525.41
2023-04-21T15:19:25.669Z,99527.78
2023-04-21T15:21:52.433Z,99528.47
2023-04-21T15:24:19.033Z,99528.22
2023-04-21T15:26:45.539Z,99513.88
2023-04-21T15:29:12.001Z,99515.97
2023-04-21T15:31:38.882Z,99506.66
2023-04-21T15:34:05.367Z,99510.72
2023-04-21T15:36:33.132Z,99509.59
2023-04-21T15:38:59.667Z,99501.56
2023-04-21T15:41:26.190Z,99500.56
2023-04-21T15:43:52.662Z,99499.25
2023-04-21T15:46:19.310Z,99501.09
2023-04-21T15:48:45.896Z,99495.75
2023-04-21T15:51:13.212Z,99494.91
2023-04-21T15:53:41.144Z,99495.44
2023-04-21T15:56:07.684Z,99489.53
2023-04-21T15:58:34.154Z,99492.72
2023-04-21T16:01:00.625Z,99484.22
2023-04-21T16:03:27.232Z,99489.00
2023-04-21T16:05:54.071Z,99490.53
2023-04-21T16:08:20.913Z,99488.41
2023-04-21T16:10:48.981Z,99485.75
2023-04-21T16:13:15.646Z,99484.56
2023-04-21T16:15:42.253Z,99483.44
2023-04-21T16:18:08.933Z,99474.41
2023-04-21T16:20:36.253Z,99472.44
2023-04-21T16:23:02.903Z,99476.09
2023-04-21T16:25:29.474Z,99475.94
2023-04-21T16:27:57.310Z,99475.81
2023-04-21T16:30:24.152Z,99479.16
2023-04-21T16:32:50.636Z,99478.16
2023-04-21T16:35:17.254Z,99478.88
2023-04-21T16:37:44.134Z,99474.81
2023-04-21T16:40:11.391Z,99473.19
2023-04-21T16:42:38.273Z,99480.94
2023-04-21T16:45:06.884Z,99472.44
2023-04-21T16:47:36.664Z,99475.66
2023-04-21T16:50:05.607Z,99476.47
2023-04-21T16:52:32.388Z,99478.16
2023-04-21T16:54:58.872Z,99469.81
2023-04-21T16:57:25.748Z,99459.81
2023-04-21T16:59:52.754Z,99463.50
2023-04-21T17:02:20.799Z,99463.34
2023-04-21T17:04:47.395Z,99466.84
2023-04-21T17:07:14.305Z,99468.53
2023-04-21T17:09:40.785Z,99467.56
2023-04-21T17:12:07.254Z,99471.66
2023-04-21T17:14:33.844Z,99469.91
2023-04-21T17:17:00.513Z,99475.09
2023-04-21T17:19:28.624Z,99469.44
2023-04-21T17:21:55.283Z,99476.19
2023-04-21T17:24:21.778Z,99473.34
2023-04-21T17:26:48.292Z,99474.22
2023-04-21T17:29:14.779Z,99470.53
2023-04-21T17:31:41.277Z,99466.84
2023-04-21T17:34:07.809Z,99461.50
2023-04-21T17:36:35.665Z,99465.84
2023-04-21T17:39:02.117Z,99464.88
2023-04-21T17:41:28.578Z,99463.16
2023-04-21T17:43:55.027Z,99457.50
2023-04-21T17:46:24.782Z,99453.00
2023-04-21T17:48:51.828Z,99455.84
2023-04-21T17:51:18.296Z,99463.94
2023-04-21T17:53:46.385Z,99452.66
2023-04-21T17:56:13.169Z,99463.09
2023-04-21T17:58:40.314Z,99459.28
2023-04-21T18:01:06.852Z,99447.56
2023-04-21T18:03:33.512Z,99457.28
2023-04-21T18:06:00.169Z,99456.31
2023-04-21T18:08:26.691Z,99449.09
2023-04-21T18:10:55.264Z,99452.44
2023-04-21T18:13:21.725Z,99452.44
2023-04-21T18:15:48.325Z,99455.13
2023-04-21T18:18:14.889Z,99441.72
2023-04-21T18:20:41.795Z,99447.97
2023-04-21T18:23:08.278Z,99451.47
2023-04-21T18:25:42.432Z,99442.59
2023-04-21T18:28:10.872Z,99450.31
2023-04-21T18:30:37.445Z,99444.88
2023-04-21T18:33:04.129Z,99439.56
2023-04-21T18:35:30.722Z,99436.59
2023-04-21T18:37:57.200Z,99447.00
2023-04-21T18:40:23.753Z,99448.56
2023-04-21T18:42:50.319Z,99446.88
2023-04-21T18:45:18.274Z,99452.91
2023-04-21T18:47:44.751Z,99449.56
2023-04-21T18:50:11.431Z,99448.41
2023-04-21T18:52:38.250Z,99442.91
2023-04-21T18:55:05.347Z,99438.38
2023-04-21T18:57:31.872Z,99443.75
2023-04-21T18:59:58.352Z,99449.09
2023-04-21T19:02:26.433Z,99450.78
2023-04-21T19:04:53.198Z,99458.81
2023-04-21T19:07:19.688Z,99449.16
2023-04-21T19:09:46.166Z,99452.28
2023-04-21T19:12:12.615Z,99454.81
2023-04-21T19:14:46.627Z,99448.31
2023-04-21T19:17:13.817Z,99444.34
2023-04-21T19:19:41.779Z,99445.16
2023-04-21T19:22:08.359Z,99456.72
2023-04-21T19:24:35.865Z,99459.41
2023-04-21T19:27:03.041Z,99454.06
2023-04-21T19:29:29.625Z,99444.34
2023-04-21T19:31:56.103Z,99447.84
2023-04-21T19:34:22.576Z,99448.69
2023-04-21T19:36:50.468Z,99453.06
2023-04-21T19:39:16.924Z,99465.63
2023-04-21T19:41:43.369Z,99461.41
2023-04-21T19:44:09.821Z,99466.81
2023-04-21T19:46:36.395Z,99456.81
2023-04-21T19:49:02.964Z,99465.53
2023-04-21T19:51:29.407Z,99456.50
2023-04-21T19:54:09.941Z,99464.56
2023-04-21T19:56:37.783Z,99460.88
2023-04-21T19:59:04.275Z,99464.22
2023-04-21T20:01:30.983Z,99459.03
2023-04-21T20:03:57.623Z,99466.91
2023-04-21T20:06:24.228Z,99465.22
2023-04-21T20:08:50.664Z,99468.63
2023-04-21T20:11:18.436Z,99469.44
2023-04-21T20:13:44.902Z,99467.78
2023-04-21T20:16:11.489Z,99454.69
2023-04-21T20:18:38.104Z,99458.25
2023-04-21T20:21:04.596Z,99453.72
2023-04-21T20:23:31.143Z,99454.44
2023-04-21T20:25:57.681Z,99450.63
2023-04-21T20:28:25.433Z,99445.94
2023-04-21T20:30:51.877Z,99455.66
2023-04-21T20:33:18.449Z,99442.94
2023-04-21T20:35:44.980Z,99439.44
2023-04-21T20:38:11.529Z,99439.28
2023-04-21T20:40:38.008Z,99436.59
2023-04-21T20:43:04.553Z,99437.59
2023-04-21T20:45:32.374Z,99438.44
2023-04-21T20:47:58.998Z,99434.75
2023-04-21T20:50:25.438Z,99437.50
2023-04-21T20:52:51.956Z,99446.53
2023-04-21T20:55:19.209Z,99440.19
2023-04-21T20:57:45.722Z,99427.47
2023-04-21T21:00:12.640Z,99423.66
2023-04-21T21:02:40.698Z,99425.50
2023-04-21T21:05:08.036Z,99417.31
2023-04-21T21:07:34.540Z,99416.47
2023-04-21T21:10:01.023Z,99424.50
2023-04-21T21:12:27.511Z,99426.19
2023-04-21T21:14:53.995Z,99417.16
2023-04-21T21:17:20.505Z,99423.66
2023-04-21T21:19:48.289Z,99416.69
2023-04-21T21:22:14.864Z,99418.53
2023-04-21T21:24:41.355Z,99421.03
2023-04-21T21:27:07.924Z,99425.09
2023-04-21T21:29:34.522Z,99427.63
2023-04-21T21:32:01.001Z,99426.50
2023-04-21T21:34:27.510Z,99426.50
2023-04-21T21:36:55.451Z,99421.16
2023-04-21T21:39:21.980Z,99418.47
2023-04-21T21:41:48.429Z,99415.47
2023-04-21T21:44:14.872Z,99424.50
2023-04-21T21:49:08.078Z,99424.38
2023-04-21T21:51:34.614Z,99424.41
2023-04-21T21:54:02.388Z,99412.31
2023-04-21T21:56:28.960Z,99421.19
2023-04-21T21:58:55.522Z,99415.38
2023-04-21T22:01:22.862Z,99425.94
2023-04-21T22:03:49.557Z,99420.44
2023-04-21T22:06:17.243Z,99432.84
2023-04-21T22:08:44.124Z,99439.03
2023-04-21T22:11:11.947Z,99441.72
2023-04-21T22:13:38.408Z,99431.53
2023-04-21T22:16:05.052Z,99420.97
2023-04-21T22:18:31.486Z,99430.84
2023-04-21T22:20:58.035Z,99430.84
2023-04-21T22:23:24.906Z,99439.78
2023-04-21T22:25:51.506Z,99428.22
2023-04-21T22:28:19.289Z,99424.72
2023-04-21T22:30:45.726Z,99434.13
2023-04-21T22:33:12.363Z,99433.13
2023-04-21T22:35:38.899Z,99433.84
2023-04-21T22:38:05.365Z,99430.31
2023-04-21T22:40:32.060Z,99429.31
2023-04-21T22:42:58.600Z,99430.03
2023-04-21T22:45:26.394Z,99440.75
2023-04-21T22:47:52.942Z,99431.00
2023-04-21T22:50:19.451Z,99430.84
2023-04-21T22:52:45.923Z,99436.22
2023-04-21T22:55:12.384Z,99432.88
2023-04-21T22:57:38.874Z,99428.69
2023-04-21T23:00:07.170Z,99412.31
2023-04-21T23:02:35.152Z,99405.66
2023-04-21T23:05:01.880Z,99406.34
2023-04-21T23:07:28.404Z,99411.69
2023-04-21T23:09:54.830Z,99397.47
2023-04-21T23:12:21.429Z,99391.97
2023-04-21T23:14:47.898Z,99393.50
2023-04-21T23:17:14.321Z,99392.81
2023-04-21T23:19:42.048Z,99397.16
2023-04-21T23:22:08.519Z,99399.56
2023-04-21T23:24:34.998Z,99387.47
2023-04-21T23:27:01.579Z,99380.47
2023-04-21T23:29:28.223Z,99392.88
2023-04-21T23:31:54.860Z,99386.50
2023-04-21T23:34:21.516Z,99380.72
2023-04-21T23:36:49.416Z,99384.25
2023-04-21T23:39:15.842Z,99387.75
2023-04-21T23:41:42.324Z,99387.47
2023-04-21T23:44:08.861Z,99385.75
2023-04-21T23:46:35.373Z,99397.16
2023-04-21T23:49:01.820Z,99395.31
2023-04-21T23:51:28.312Z,99401.69
2023-04-21T23:53:56.095Z,99406.03
2023-04-21T23:56:22.574Z,99407.75
2023-04-21T23:58:48.994Z,99394.66
